Puerto Banus, Marbella

>

This is an optional block (switch it off / on) in the settings - file ($SITE['banners'] = false;)

You can display ads, any other important text or photo’s using text / html or PHP code.

You can place one or more at the top and or bottom and it can all be different for content / size .



Meteosat more information blitzortung!


Radar lluvias  rain snow radar


Visita nuestra red de sitios de meteo:

Documentation for the template used

MeteoibericaRed estaciones Meteorologicas

MeteoclimaticRed estaciones Meteorologicas



Sin Advertencias climatologicas .En este momento tenemos Nivel Verde.    No hay Alarmas

Informes METAR proximidad

   
EBAW - Antwerp
Actualización: 19-09-2017 13:20
Nubes dispersas  
Nubes dispersas  
   Viento: ENE 9.3 km/h
Viento: ENE 9.3 km/h
Temperatura: 16°C
Punto de rocío: 9°C
Humedad: 63%
Baromètro: 1019 hPa
Nublado: Nubes dispersas
Visibilidad: More than 10 km
detalles de la nube: Nubes dispersas 2700 ft
EBAW 191120Z 06005KT 020V090 9999 FEW027 16/09 Q1019 NOSIG
EBLG - Liège
Actualización: 19-09-2017 12:50
Parcialmente Nublado  
Parcialmente Nublado  
   Viento: WNW 11.1 km/h
Viento: WNW 11.1 km/h
Temperatura: 14°C
Punto de rocío: 11°C
Humedad: 82%
Baromètro: 1019 hPa
Nublado: Parcialmente Nublado
Visibilidad: More than 10 km
detalles de la nube: Nubes dispersas 1200 ft,
Parcialmente Nublado 2000 ft
EBLG 191050Z 29006KT 9999 FEW012 SCT020 14/11 Q1019 NOSIG
EBCV - Mons/Bergen
Actualización: 19-09-2017 12:55
Parcialmente nublado  
Parcialmente nublado  
   Viento: NW 13 km/h
Viento: NW 13 km/h
Temperatura: 15°C
Punto de rocío: 10°C
Humedad: 72%
Baromètro: 1020 hPa
Nublado: Parcialmente nublado
Visibilidad: More than 10 km
detalles de la nube: Nubes dispersas 1600 ft,
Parcialmente nublado 2300 ft
EBCV 191055Z AUTO 32007KT 9999 FEW016/// BKN023/// 15/10 Q1020 WHT
EHBK - Maastricht
Actualización: 19-09-2017 13:25
Nublado  
Nublado  
   Viento: NNW 13 km/h
Viento: NNW 13 km/h
Temperatura: 11°C
Punto de rocío: 10°C
Humedad: 94%
Baromètro: 1019 hPa
Nublado: Nublado
Visibilidad: 7 km
detalles de la nube: Nubes dispersas 500 ft,
Parcialmente nublado 700 ft,
Nublado 800 ft
EHBK 191125Z AUTO 33007KT 280V360 7000 FEW005 BKN007 OVC008 11/10 Q1019 BECMG 9999
ELLX - Luxemburg
Actualización: 19-09-2017 13:20
Nearby Showers, Parcialmente Nublado  
Nearby Showers, Parcialmente Nublado  
   Viento: WSW 13 km/h
Viento: WSW 13 km/h
Temperatura: 14°C
Punto de rocío: 8°C
Humedad: 67%
Baromètro: 1018 hPa
Nublado: Parcialmente Nublado
Visibilidad: More than 10 km
detalles de la nube: Parcialmente Nublado 2000 ft
ELLX 191120Z 25007KT 220V280 9999 VCSH SCT020TCU 14/08 Q1018 NOSIG
EBOS - Oostende
Actualización: 19-09-2017 13:20
Nubes dispersas  
Nubes dispersas  
   Viento: NNW 13 km/h
Viento: NNW 13 km/h
Temperatura: 16°C
Punto de rocío: 12°C
Humedad: 77%
Baromètro: 1020 hPa
Nublado: Nubes dispersas
Visibilidad: More than 10 km
detalles de la nube: Nubes dispersas 1800 ft
EBOS 191120Z 34007KT 9999 FEW018 16/12 Q1020 NOSIG

Guión original por  Saratoga-weather.org Adaptado para la plantilla por  Weerstation Leuven

Usted encontrará nuestra información del tiempo también en:

Weather Underground

Iberian Peninsula Weather Network